Terminal Aerodrome Forecast
Issued by NWS

Home | Current Version | Previous Version | Text Only | Print | Product List | Glossary On
Versions: 1 2 3 4 5 6 7 8 9 10 11 12 13 14 15 16 17
000
FTUS42 KTAE 280500
TAFECP
TAF
KECP 280528Z 2806/2906 22007KT P6SM SCT250
     FM281400 28012KT P6SM SCT020
     FM281800 25013KT P6SM VCTS BKN040CB
     FM282200 VRB15G30KT 3SM TSRA BKN030CB
     FM290200 27008KT P6SM SCT040 BKN100=

USA.gov is the U.S. government's official web portal to all federal, state and local government web resources and services.